Time;durP1;ratioP1;P1;durP2;ratioP2;P2;SDS_P1;SDS_P2;PMS_P1;PMS_P2;Temp;Humidity;BMP_temperature;BMP_pressure;BME280_temperature;BME280_humidity;BME280_pressure;Samples;Min_cycle;Max_cycle;Signal;HPM_P1;HPM_P2
2023/12/21 11:34:39;;;;;;;8.40;2.40;;;;;;;9.95;100.00;99705.50;5284734;27;20371;-69
2023/12/21 11:37:24;;;;;;;9.17;2.00;;;;;;;10.08;100.00;99701.00;5310610;28;20108;-69
2023/12/21 11:39:59;;;;;;;10.70;3.23;;;;;;;10.09;100.00;99684.34;5271192;28;20081;-70
2023/12/21 11:42:35;;;;;;;7.10;1.70;;;;;;;10.14;100.00;99674.38;5272048;28;20593;-70
2023/12/21 11:45:07;;;;;;;5.17;1.60;;;;;;;10.19;100.00;99649.63;5268890;28;20502;-72
2023/12/21 11:47:44;;;;;;;6.60;2.07;;;;;;;10.29;100.00;99684.59;5271679;28;20389;-70
2023/12/21 11:50:18;;;;;;;8.37;1.97;;;;;;;10.38;100.00;99664.75;5271274;28;20104;-71
2023/12/21 11:52:50;;;;;;;6.60;2.10;;;;;;;10.45;100.00;99670.31;5270989;28;20380;-69
2023/12/21 11:55:25;;;;;;;6.40;2.03;;;;;;;10.58;100.00;99665.81;5269800;28;20032;-70
2023/12/21 11:58:26;;;;;;;5.83;1.83;;;;;;;10.79;100.00;99659.81;5271452;28;20482;-70
2023/12/21 12:00:58;;;;;;;6.20;1.70;;;;;;;10.80;100.00;99651.03;5259233;28;20041;-71
2023/12/21 12:03:30;;;;;;;9.53;2.13;;;;;;;10.83;100.00;99642.91;5266681;28;20035;-71
2023/12/21 12:06:03;;;;;;;7.33;1.43;;;;;;;10.89;100.00;99636.38;5270391;28;20025;-71
2023/12/21 12:08:34;;;;;;;6.60;1.27;;;;;;;10.89;100.00;99641.59;5271437;28;20063;-71
2023/12/21 12:11:06;;;;;;;5.27;1.43;;;;;;;10.94;100.00;99635.97;5275575;28;20422;-71
2023/12/21 12:13:37;;;;;;;5.33;1.90;;;;;;;10.84;100.00;99662.91;5269936;28;20443;-70
2023/12/21 12:16:08;;;;;;;6.00;1.40;;;;;;;10.85;100.00;99638.41;5268633;28;20020;-71
2023/12/21 12:18:40;;;;;;;5.57;1.60;;;;;;;10.91;100.00;99657.19;5270974;28;20135;-71
2023/12/21 12:21:11;;;;;;;10.50;1.83;;;;;;;10.85;100.00;99648.03;5270245;28;20080;-70
2023/12/21 12:23:46;;;;;;;8.30;1.60;;;;;;;10.81;100.00;99668.41;5270953;28;20032;-70
2023/12/21 12:26:18;;;;;;;9.23;1.90;;;;;;;10.68;100.00;99667.72;5270461;28;20167;-69
2023/12/21 12:28:51;;;;;;;5.93;1.47;;;;;;;10.63;100.00;99658.44;5269504;28;20112;-71
2023/12/21 12:31:23;;;;;;;5.90;1.43;;;;;;;10.57;100.00;99645.00;5268885;28;20024;-71
2023/12/21 12:33:54;;;;;;;7.43;2.00;;;;;;;10.55;100.00;99655.59;5269996;28;20449;-72
2023/12/21 12:36:25;;;;;;;8.33;1.97;;;;;;;10.48;100.00;99623.84;5269245;28;20098;-71
2023/12/21 12:38:57;;;;;;;4.10;2.13;;;;;;;10.48;100.00;99636.09;5269310;28;20036;-71
2023/12/21 12:41:29;;;;;;;8.47;1.90;;;;;;;10.32;100.00;99618.09;5270674;28;20025;-71
2023/12/21 12:44:00;;;;;;;11.43;1.90;;;;;;;10.33;100.00;99618.00;5266165;28;20033;-71
2023/12/21 12:46:32;;;;;;;11.07;2.20;;;;;;;10.33;100.00;99633.72;5256795;28;20116;-71
2023/12/21 12:49:03;;;;;;;5.70;1.80;;;;;;;10.25;100.00;99608.13;5256141;28;20033;-71
2023/12/21 12:51:34;;;;;;;7.17;2.47;;;;;;;10.28;100.00;99635.84;5256377;28;20059;-73
2023/12/21 12:54:06;;;;;;;17.00;2.47;;;;;;;10.29;100.00;99637.50;5255971;28;20044;-72
2023/12/21 12:56:48;;;;;;;9.47;2.03;;;;;;;10.43;100.00;99627.72;5256116;28;20029;-71
2023/12/21 12:59:20;;;;;;;7.73;2.63;;;;;;;10.45;100.00;99637.13;5253020;28;20020;-73
2023/12/21 13:01:52;;;;;;;8.27;1.97;;;;;;;10.44;100.00;99626.78;5255964;28;20035;-73
2023/12/21 13:04:23;;;;;;;9.20;2.30;;;;;;;10.46;100.00;99614.41;5256189;28;20037;-73
2023/12/21 13:06:55;;;;;;;8.77;3.03;;;;;;;10.47;100.00;99614.31;5254985;28;20562;-72
2023/12/21 13:09:26;;;;;;;8.53;2.20;;;;;;;10.43;100.00;99633.81;5248288;28;20029;-70
2023/12/21 13:11:59;;;;;;;8.07;1.90;;;;;;;10.49;100.00;99622.88;5255416;28;20078;-73
2023/12/21 13:14:30;;;;;;;12.37;2.50;;;;;;;10.45;100.00;99616.19;5255068;28;20108;-72
2023/12/21 13:17:02;;;;;;;9.17;2.27;;;;;;;10.46;100.00;99611.78;5255935;28;20125;-71
2023/12/21 13:19:34;;;;;;;8.13;2.90;;;;;;;10.45;100.00;99600.50;5256065;28;20076;-70
2023/12/21 13:22:06;;;;;;;10.57;2.37;;;;;;;10.45;100.00;99608.34;5283545;28;20037;-71
2023/12/21 13:24:39;;;;;;;6.50;2.00;;;;;;;10.38;100.00;99639.41;5254264;28;20035;-71
2023/12/21 13:27:10;;;;;;;14.47;3.43;;;;;;;10.20;100.00;99623.34;5255722;28;20037;-71
2023/12/21 13:29:41;;;;;;;8.93;2.67;;;;;;;10.32;100.00;99629.41;5251574;28;20102;-68
2023/12/21 13:32:13;;;;;;;12.20;2.37;;;;;;;10.27;100.00;99623.69;5254590;28;20078;-69
2023/12/21 13:34:46;;;;;;;11.90;2.50;;;;;;;10.31;100.00;99635.59;5255234;28;20039;-69
2023/12/21 13:37:17;;;;;;;9.23;2.73;;;;;;;10.28;100.00;99605.25;5255074;28;20116;-72
2023/12/21 13:39:49;;;;;;;6.87;1.83;;;;;;;10.27;100.00;99610.63;5255570;28;20436;-69
2023/12/21 13:42:21;;;;;;;9.20;2.03;;;;;;;10.32;100.00;99628.56;5255283;28;20063;-69
2023/12/21 13:44:52;;;;;;;10.17;2.30;;;;;;;10.31;100.00;99630.38;5254529;28;20021;-70
2023/12/21 13:47:23;;;;;;;12.10;2.70;;;;;;;10.31;100.00;99627.75;5254919;28;20033;-68
2023/12/21 13:49:54;;;;;;;10.50;2.07;;;;;;;10.35;100.00;99626.53;5255087;28;20116;-70
2023/12/21 13:52:26;;;;;;;11.10;2.40;;;;;;;10.36;100.00;99617.75;5254368;28;20048;-69
2023/12/21 13:54:57;;;;;;;8.97;3.23;;;;;;;10.23;100.00;99617.03;5255162;28;20032;-69
2023/12/21 13:57:28;;;;;;;8.20;2.60;;;;;;;10.35;100.00;99657.13;5242844;28;20024;-70
2023/12/21 14:00:03;;;;;;;11.43;2.77;;;;;;;10.36;100.00;99664.88;5250466;28;20064;-70
2023/12/21 14:02:35;;;;;;;10.20;2.93;;;;;;;10.38;100.00;99657.72;5255134;28;20025;-71
2023/12/21 14:05:07;;;;;;;13.57;4.00;;;;;;;10.35;100.00;99637.00;5252377;28;20033;-70
2023/12/21 14:07:38;;;;;;;12.97;3.13;;;;;;;10.33;100.00;99653.81;5254580;28;20495;-71
2023/12/21 14:10:09;;;;;;;12.63;2.73;;;;;;;10.44;100.00;99660.81;5253354;28;20033;-72
2023/12/21 14:12:40;;;;;;;9.07;2.83;;;;;;;10.35;100.00;99642.25;5254195;28;20589;-70
2023/12/21 14:15:12;;;;;;;12.63;2.47;;;;;;;10.44;100.00;99629.41;5253946;28;20052;-69
2023/12/21 14:17:43;;;;;;;7.97;2.50;;;;;;;10.46;100.00;99653.66;5259581;28;20398;-70
2023/12/21 14:20:14;;;;;;;10.90;2.87;;;;;;;10.43;100.00;99651.28;5246984;28;20025;-70
2023/12/21 14:22:45;;;;;;;9.73;2.70;;;;;;;10.54;100.00;99669.66;5253432;28;20024;-71
2023/12/21 14:25:17;;;;;;;11.60;3.17;;;;;;;10.49;100.00;99667.38;5254615;28;20720;-71
2023/12/21 14:27:49;;;;;;;12.33;2.73;;;;;;;10.48;100.00;99673.56;5252793;28;20033;-71
2023/12/21 14:30:21;;;;;;;12.93;2.80;;;;;;;10.46;100.00;99664.97;5250983;28;20029;-70
2023/12/21 14:32:52;;;;;;;11.30;2.50;;;;;;;10.46;100.00;99667.59;5254815;28;20821;-70
2023/12/21 14:35:23;;;;;;;8.37;2.70;;;;;;;10.32;100.00;99647.72;5245455;28;20056;-70
2023/12/21 14:37:55;;;;;;;10.73;2.70;;;;;;;10.51;100.00;99680.34;5254181;28;20025;-70
2023/12/21 14:40:26;;;;;;;11.93;2.93;;;;;;;10.46;100.00;99664.97;5259091;28;20036;-69
2023/12/21 14:42:57;;;;;;;12.33;2.57;;;;;;;10.53;100.00;99655.72;5253592;28;20088;-70
2023/12/21 14:45:29;;;;;;;12.13;2.57;;;;;;;10.55;100.00;99658.22;5246543;28;20476;-70
2023/12/21 14:48:00;;;;;;;13.83;3.67;;;;;;;10.43;100.00;99654.75;5251541;28;20403;-70
2023/12/21 14:50:31;;;;;;;10.67;2.90;;;;;;;10.51;100.00;99662.00;5252611;28;20049;-70
2023/12/21 14:53:03;;;;;;;14.80;4.43;;;;;;;10.46;100.00;99657.13;5254239;28;20040;-70
2023/12/21 14:55:34;;;;;;;13.20;3.30;;;;;;;10.38;100.00;99636.78;5260243;28;20035;-70
2023/12/21 14:58:05;;;;;;;12.80;3.90;;;;;;;10.45;100.00;99641.53;5251657;28;20033;-70
2023/12/21 15:00:37;;;;;;;14.03;3.23;;;;;;;10.49;100.00;99659.50;5253451;28;20033;-70
2023/12/21 15:03:08;;;;;;;11.60;2.63;;;;;;;10.45;100.00;99654.63;5253736;28;20029;-69
2023/12/21 15:05:40;;;;;;;9.80;2.83;;;;;;;10.39;100.00;99635.81;5255175;28;20023;-69
2023/12/21 15:08:11;;;;;;;12.00;3.30;;;;;;;10.37;100.00;99624.63;5251877;28;20074;-69
2023/12/21 15:10:42;;;;;;;15.83;3.77;;;;;;;10.46;100.00;99640.56;5254190;28;20048;-69
2023/12/21 15:13:13;;;;;;;11.00;3.27;;;;;;;10.41;100.00;99652.25;5251900;28;20040;-69
2023/12/21 15:15:45;;;;;;;18.23;5.10;;;;;;;10.43;100.00;99632.97;5253606;28;20025;-69
2023/12/21 15:18:16;;;;;;;13.47;3.53;;;;;;;10.41;100.00;99649.63;5250619;28;20045;-68
2023/12/21 15:20:48;;;;;;;18.07;3.90;;;;;;;10.39;100.00;99679.47;5253506;28;20094;-68
2023/12/21 15:23:19;;;;;;;13.63;3.20;;;;;;;10.35;100.00;99684.13;5250380;28;20032;-69
2023/12/21 15:25:50;;;;;;;19.40;3.77;;;;;;;10.32;100.00;99700.06;5251970;28;20060;-69
2023/12/21 15:28:22;;;;;;;15.00;4.03;;;;;;;10.38;100.00;99686.53;5251724;28;20037;-69
2023/12/21 15:30:53;;;;;;;13.80;4.03;;;;;;;10.25;100.00;99663.06;5252115;28;20107;-69
2023/12/21 15:33:24;;;;;;;14.80;3.17;;;;;;;10.32;100.00;99683.53;5252075;28;20049;-69
2023/12/21 15:35:56;;;;;;;10.50;3.33;;;;;;;10.26;100.00;99683.03;5251678;28;20043;-69
2023/12/21 15:38:27;;;;;;;14.23;3.97;;;;;;;10.27;100.00;99697.81;5252996;28;20033;-68
2023/12/21 15:40:58;;;;;;;17.40;4.33;;;;;;;10.28;100.00;99690.81;5253793;28;20071;-68
2023/12/21 15:43:34;;;;;;;17.70;4.40;;;;;;;10.29;100.00;99669.75;5252201;28;20064;-68
2023/12/21 15:46:06;;;;;;;17.07;4.60;;;;;;;10.23;100.00;99690.31;5250979;28;20115;-68
2023/12/21 15:48:37;;;;;;;16.10;3.77;;;;;;;10.22;100.00;99684.25;5251367;28;20531;-69
2023/12/21 15:51:08;;;;;;;17.50;3.57;;;;;;;10.16;100.00;99680.31;5253315;28;20052;-68
2023/12/21 15:53:40;;;;;;;15.37;3.50;;;;;;;10.17;100.00;99687.19;5253630;28;20064;-69
2023/12/21 15:56:12;;;;;;;17.20;4.00;;;;;;;10.10;100.00;99701.72;5244281;28;20025;-68
2023/12/21 15:58:43;;;;;;;17.60;3.50;;;;;;;10.10;100.00;99720.03;5250193;28;20021;-67
2023/12/21 16:01:16;;;;;;;16.17;3.87;;;;;;;10.11;100.00;99713.84;5253980;28;20021;-67
2023/12/21 16:03:48;;;;;;;19.63;3.50;;;;;;;10.04;100.00;99708.25;5252838;28;20155;-68
2023/12/21 16:06:19;;;;;;;15.00;3.60;;;;;;;9.97;100.00;99687.91;5252935;28;20128;-68
2023/12/21 16:08:50;;;;;;;12.90;2.87;;;;;;;9.89;100.00;99697.19;5251950;28;20033;-69
2023/12/21 16:11:23;;;;;;;19.87;4.13;;;;;;;9.88;100.00;99710.38;5254787;28;20079;-68
2023/12/21 16:13:54;;;;;;;18.60;3.97;;;;;;;9.85;100.00;99726.28;5255156;28;20092;-68
2023/12/21 16:16:26;;;;;;;19.30;3.60;;;;;;;9.85;100.00;99731.50;5247304;28;20029;-69
2023/12/21 16:18:57;;;;;;;14.80;3.80;;;;;;;9.82;100.00;99713.44;5251068;28;20032;-68
2023/12/21 16:21:28;;;;;;;14.93;4.10;;;;;;;9.85;100.00;99718.44;5257372;28;20028;-69
2023/12/21 16:23:59;;;;;;;15.80;4.30;;;;;;;9.82;100.00;99740.44;5255957;28;20638;-68
2023/12/21 16:26:40;;;;;;;12.90;3.13;;;;;;;9.79;100.00;99731.00;5254239;28;20550;-69
2023/12/21 16:29:12;;;;;;;21.60;4.60;;;;;;;9.76;100.00;99731.25;5257744;28;20086;-68
2023/12/21 16:31:43;;;;;;;20.00;4.10;;;;;;;9.63;100.00;99726.13;5257004;28;20419;-68
2023/12/21 16:34:14;;;;;;;17.20;4.77;;;;;;;9.66;100.00;99704.97;5263807;28;20187;-68
2023/12/21 16:36:46;;;;;;;21.33;5.27;;;;;;;9.70;100.00;99730.88;5261963;28;20029;-68
2023/12/21 16:39:17;;;;;;;25.07;5.97;;;;;;;9.72;100.00;99729.00;5256839;28;20025;-68
2023/12/21 16:41:48;;;;;;;13.97;4.90;;;;;;;9.71;100.00;99748.22;5256690;28;20029;-68
2023/12/21 16:44:19;;;;;;;15.47;3.93;;;;;;;9.71;100.00;99743.00;5255438;28;20487;-68
2023/12/21 16:46:51;;;;;;;15.23;4.03;;;;;;;9.66;100.00;99753.78;5256090;28;20104;-69
2023/12/21 16:49:22;;;;;;;21.83;6.13;;;;;;;9.73;100.00;99762.03;5255624;28;20027;-68
2023/12/21 16:51:53;;;;;;;22.63;6.33;;;;;;;9.58;100.00;99717.78;5255039;28;20021;-68
2023/12/21 16:54:25;;;;;;;16.63;3.67;;;;;;;9.52;100.00;99739.97;5255905;28;20037;-68
2023/12/21 16:56:56;;;;;;;23.63;5.10;;;;;;;9.40;100.00;99754.78;5255022;28;20033;-68
2023/12/21 16:59:28;;;;;;;19.10;4.73;;;;;;;9.40;100.00;99752.16;5255402;28;20032;-68
2023/12/21 17:01:59;;;;;;;20.80;4.97;;;;;;;9.30;100.00;99743.31;5256297;28;20032;-68
2023/12/21 17:04:31;;;;;;;20.60;5.40;;;;;;;9.39;100.00;99766.16;5256443;28;20051;-68
2023/12/21 17:07:02;;;;;;;22.10;5.67;;;;;;;9.37;100.00;99762.84;5256179;28;20430;-68
2023/12/21 17:09:33;;;;;;;15.10;3.77;;;;;;;9.32;100.00;99741.41;5256930;28;20013;-68
2023/12/21 17:12:05;;;;;;;17.17;5.20;;;;;;;9.42;100.00;99767.72;5255999;28;20029;-69
2023/12/21 17:14:36;;;;;;;17.73;4.53;;;;;;;9.26;100.00;99770.59;5255981;28;20482;-69
2023/12/21 17:17:08;;;;;;;22.57;4.97;;;;;;;9.27;100.00;99767.03;5254851;28;20025;-69
2023/12/21 17:19:39;;;;;;;14.47;4.63;;;;;;;9.27;100.00;99798.38;5257046;28;20059;-69
2023/12/21 17:22:10;;;;;;;19.80;4.33;;;;;;;9.23;100.00;99776.03;5255427;28;20489;-69
2023/12/21 17:24:42;;;;;;;21.10;5.13;;;;;;;9.29;100.00;99802.56;5256390;28;20036;-69
2023/12/21 17:27:13;;;;;;;17.30;4.80;;;;;;;9.35;100.00;99801.31;5254678;28;20467;-69
2023/12/21 17:29:44;;;;;;;21.03;5.13;;;;;;;9.29;100.00;99789.50;5255728;28;20027;-69
2023/12/21 17:32:15;;;;;;;18.77;4.10;;;;;;;9.36;100.00;99797.72;5254302;28;20029;-67
2023/12/21 17:34:47;;;;;;;17.83;4.53;;;;;;;9.33;100.00;99792.72;5255360;28;20024;-70
2023/12/21 17:37:18;;;;;;;19.20;4.80;;;;;;;9.17;100.00;99787.75;5255702;28;20091;-69
2023/12/21 17:39:49;;;;;;;21.43;4.77;;;;;;;9.25;100.00;99785.44;5255905;28;20111;-68
2023/12/21 17:42:21;;;;;;;21.00;4.63;;;;;;;9.24;100.00;99780.31;5255467;28;20036;-68
2023/12/21 17:44:53;;;;;;;19.33;3.60;;;;;;;9.26;100.00;99791.50;5254920;28;20021;-68
2023/12/21 17:47:24;;;;;;;15.60;4.47;;;;;;;9.27;100.00;99803.59;5255515;28;20047;-68
2023/12/21 17:49:56;;;;;;;16.20;4.33;;;;;;;9.30;100.00;99808.63;5255962;28;20089;-68
2023/12/21 17:52:27;;;;;;;19.73;4.20;;;;;;;9.23;100.00;99807.41;5253893;28;20040;-69
2023/12/21 17:54:58;;;;;;;17.60;4.93;;;;;;;9.25;100.00;99822.00;5288197;28;20061;-69
2023/12/21 17:57:29;;;;;;;19.13;4.90;;;;;;;9.24;100.00;99815.13;5254781;28;20044;-70
2023/12/21 18:00:01;;;;;;;17.93;3.60;;;;;;;9.25;100.00;99839.47;5254576;28;20025;-69
2023/12/21 18:02:32;;;;;;;16.70;5.10;;;;;;;9.28;100.00;99842.72;5255561;28;20029;-68
2023/12/21 18:05:04;;;;;;;15.93;3.97;;;;;;;9.26;100.00;99844.59;5256055;28;20029;-68
2023/12/21 18:07:35;;;;;;;20.97;5.17;;;;;;;9.25;100.00;99847.31;5253833;28;20135;-68
2023/12/21 18:10:07;;;;;;;14.13;3.50;;;;;;;9.19;100.00;99870.31;5255972;28;20036;-68
2023/12/21 18:12:38;;;;;;;16.30;3.87;;;;;;;9.17;100.00;99869.59;5259495;28;20544;-68
2023/12/21 18:15:09;;;;;;;17.50;5.17;;;;;;;9.16;100.00;99875.75;5259318;28;20029;-69
2023/12/21 18:17:40;;;;;;;15.10;4.03;;;;;;;9.17;100.00;99866.97;5255392;28;20103;-69
2023/12/21 18:20:14;;;;;;;20.93;5.73;;;;;;;9.19;100.00;99872.09;5254988;28;20024;-69
2023/12/21 18:22:46;;;;;;;13.90;4.90;;;;;;;9.22;100.00;99863.19;5255032;28;20032;-69
2023/12/21 18:25:17;;;;;;;16.60;3.57;;;;;;;9.22;100.00;99856.19;5236672;28;20029;-69
2023/12/21 18:27:49;;;;;;;16.67;4.87;;;;;;;9.12;100.00;99856.00;5254334;28;20024;-70
2023/12/21 18:30:21;;;;;;;19.43;5.20;;;;;;;9.15;100.00;99871.47;5255059;28;20119;-70
2023/12/21 18:32:52;;;;;;;13.93;4.13;;;;;;;9.09;100.00;99884.97;5255281;28;20116;-70
2023/12/21 18:35:23;;;;;;;13.23;3.87;;;;;;;8.92;100.00;99884.34;5254694;28;20059;-70
2023/12/21 18:37:54;;;;;;;13.80;3.60;;;;;;;8.85;100.00;99896.13;5253639;28;20021;-70
2023/12/21 18:40:26;;;;;;;11.40;3.10;;;;;;;8.69;100.00;99935.50;5254089;28;20033;-71
2023/12/21 18:42:57;;;;;;;13.80;3.00;;;;;;;8.53;100.00;99987.84;5252950;28;20396;-70
2023/12/21 18:45:28;;;;;;;13.37;3.50;;;;;;;8.28;100.00;99987.66;5253449;28;20017;-68
2023/12/21 18:48:02;;;;;;;19.93;3.63;;;;;;;8.14;100.00;99978.09;5253434;28;20021;-68
2023/12/21 18:50:33;;;;;;;14.68;4.03;;;;;;;7.87;100.00;99945.03;5245863;28;20029;-68
2023/12/21 18:53:05;;;;;;;24.13;6.13;;;;;;;7.80;100.00;99943.75;5254935;28;20730;-68
2023/12/21 18:55:36;;;;;;;19.80;5.33;;;;;;;7.59;100.00;99921.50;5254409;28;20479;-68
2023/12/21 18:58:08;;;;;;;19.63;4.10;;;;;;;7.70;100.00;99949.50;5252667;28;20036;-68
2023/12/21 19:00:39;;;;;;;21.30;5.40;;;;;;;7.64;100.00;99952.53;5254820;28;20028;-68
2023/12/21 19:03:11;;;;;;;17.70;4.73;;;;;;;7.59;100.00;99978.84;5254409;28;20025;-68
2023/12/21 19:05:45;;;;;;;16.93;4.67;;;;;;;7.50;100.00;99985.44;5254924;28;20056;-68
2023/12/21 19:08:16;;;;;;;18.40;5.13;;;;;;;7.44;100.00;99980.63;5254139;28;20664;-68
2023/12/21 19:10:48;;;;;;;17.60;5.20;;;;;;;7.35;100.00;99983.78;5254695;28;20056;-68
2023/12/21 19:13:19;;;;;;;15.67;4.33;;;;;;;7.42;100.00;99994.69;5253475;28;20483;-68
2023/12/21 19:15:50;;;;;;;18.73;4.70;;;;;;;7.44;100.00;99971.97;5255021;28;20032;-68
2023/12/21 19:18:22;;;;;;;15.40;4.30;;;;;;;7.42;100.00;99977.28;5253962;28;20031;-69
2023/12/21 19:20:54;;;;;;;18.17;3.80;;;;;;;7.34;100.00;100003.78;5254468;28;20025;-68
2023/12/21 19:23:26;;;;;;;19.33;5.87;;;;;;;7.26;100.00;99985.19;5253583;28;20035;-68
2023/12/21 19:25:57;;;;;;;16.20;4.47;;;;;;;7.31;100.00;100001.38;5254440;28;20111;-68
2023/12/21 19:28:31;;;;;;;18.50;5.53;;;;;;;7.28;100.00;100011.16;5253068;28;20117;-68
2023/12/21 19:31:06;;;;;;;17.93;3.90;;;;;;;7.10;100.00;99993.88;5254503;28;20029;-68
2023/12/21 19:33:37;;;;;;;18.73;3.77;;;;;;;7.06;100.00;100017.59;5254186;28;20160;-69
2023/12/21 19:36:15;;;;;;;14.33;4.30;;;;;;;7.04;100.00;100024.66;5254038;28;20108;-68
2023/12/21 19:38:47;;;;;;;18.10;5.60;;;;;;;7.04;100.00;100051.53;5240286;28;20033;-69
2023/12/21 19:41:22;;;;;;;23.47;4.07;;;;;;;6.98;100.00;100026.69;5254081;28;20029;-68
2023/12/21 19:43:53;;;;;;;19.42;4.60;;;;;;;7.19;100.00;100028.97;5240273;28;20029;-69
2023/12/21 19:46:24;;;;;;;19.33;4.17;;;;;;;7.09;100.00;100048.66;5253550;28;21085;-69
2023/12/21 19:48:56;;;;;;;17.97;4.07;;;;;;;7.01;100.00;100052.56;5254285;28;20017;-68
2023/12/21 19:51:27;;;;;;;20.63;4.10;;;;;;;7.15;100.00;100043.13;5253722;28;20025;-69
2023/12/21 19:53:59;;;;;;;15.90;3.47;;;;;;;7.00;100.00;100050.03;5254129;28;20053;-69
2023/12/21 19:56:30;;;;;;;10.63;3.20;;;;;;;7.03;100.00;100044.66;5257867;28;20055;-69
2023/12/21 19:59:03;;;;;;;11.30;2.63;;;;;;;7.10;100.00;100055.56;5257542;28;20045;-69
2023/12/21 20:01:34;;;;;;;12.00;2.90;;;;;;;6.85;100.00;100043.94;5257537;28;20025;-69
2023/12/21 20:04:06;;;;;;;9.23;2.37;;;;;;;7.00;100.00;100050.03;5257384;28;20039;-69
2023/12/21 20:06:37;;;;;;;11.87;3.10;;;;;;;7.00;100.00;100050.88;5257759;28;20025;-70
2023/12/21 20:09:09;;;;;;;8.00;2.27;;;;;;;6.90;100.00;100061.00;5257512;28;20053;-69
2023/12/21 20:11:43;;;;;;;10.93;2.80;;;;;;;6.81;100.00;100065.88;5258028;28;20021;-70
2023/12/21 20:14:15;;;;;;;8.90;1.95;;;;;;;6.80;100.00;100079.81;5261067;28;20036;-69
2023/12/21 20:16:47;;;;;;;9.93;2.97;;;;;;;6.78;100.00;100072.94;5256581;28;20025;-70
2023/12/21 20:19:20;;;;;;;7.57;2.73;;;;;;;6.75;100.00;100075.72;5257039;28;20029;-69
2023/12/21 20:21:53;;;;;;;9.48;2.58;;;;;;;6.75;100.00;100073.13;5257436;28;20024;-69
2023/12/21 20:24:24;;;;;;;10.60;2.37;;;;;;;6.84;100.00;100065.72;5257303;28;20029;-69
2023/12/21 20:26:55;;;;;;;10.90;3.13;;;;;;;6.73;100.00;100074.97;5257662;28;20025;-69
2023/12/21 20:29:26;;;;;;;12.37;3.37;;;;;;;6.70;100.00;100067.34;5256105;28;20025;-69
2023/12/21 20:31:58;;;;;;;8.40;2.53;;;;;;;6.70;100.00;100085.56;5257810;28;20025;-69
2023/12/21 20:34:29;;;;;;;12.40;3.20;;;;;;;6.73;100.00;100074.97;5256728;28;20461;-69
2023/12/21 20:37:00;;;;;;;12.60;4.10;;;;;;;6.61;100.00;100081.69;5257440;28;20384;-69
2023/12/21 20:39:35;;;;;;;15.10;3.37;;;;;;;6.67;100.00;100080.50;5257487;28;20592;-69
2023/12/21 20:42:07;;;;;;;15.65;3.55;;;;;;;6.68;100.00;100071.78;5254915;28;20029;-69
2023/12/21 20:44:38;;;;;;;11.63;3.20;;;;;;;6.52;100.00;100072.63;5257090;28;20107;-69
2023/12/21 20:47:10;;;;;;;12.00;3.17;;;;;;;6.57;100.00;100089.72;5257131;28;20033;-69
2023/12/21 20:49:43;;;;;;;15.87;3.33;;;;;;;6.63;100.00;100085.03;5256171;28;20025;-68
2023/12/21 20:52:14;;;;;;;17.27;4.30;;;;;;;6.52;100.00;100083.03;5250485;28;20036;-69
2023/12/21 20:54:46;;;;;;;12.63;3.90;;;;;;;6.60;100.00;100110.38;5256019;28;20025;-69
2023/12/21 20:57:17;;;;;;;18.77;3.83;;;;;;;6.53;100.00;100110.72;5253958;28;20032;-69
2023/12/21 20:59:49;;;;;;;12.33;2.73;;;;;;;6.42;100.00;100097.47;5256119;28;20013;-69
2023/12/21 21:02:21;;;;;;;20.47;3.03;;;;;;;6.55;100.00;100100.22;5254799;28;20087;-70
2023/12/21 21:04:53;;;;;;;12.83;3.40;;;;;;;6.43;100.00;100101.75;5255004;28;20112;-69
2023/12/21 21:07:25;;;;;;;15.97;3.83;;;;;;;6.43;100.00;100096.53;5255644;28;20956;-69
2023/12/21 21:09:56;;;;;;;19.63;3.70;;;;;;;6.53;100.00;100083.84;5257028;28;20025;-69
2023/12/21 21:12:27;;;;;;;14.37;3.73;;;;;;;6.60;100.00;100082.59;5255207;28;20033;-70
2023/12/21 21:14:58;;;;;;;17.17;3.40;;;;;;;6.46;100.00;100098.97;5257257;28;20025;-68
2023/12/21 21:17:30;;;;;;;13.93;3.30;;;;;;;6.50;100.00;100110.91;5257012;28;20029;-69
2023/12/21 21:20:03;;;;;;;13.57;3.40;;;;;;;6.53;100.00;100121.13;5258957;28;20471;-69
2023/12/21 21:22:38;;;;;;;16.00;3.43;;;;;;;6.51;100.00;100116.94;5258613;28;20434;-69
2023/12/21 21:25:10;;;;;;;18.43;3.40;;;;;;;6.64;100.00;100125.75;5256103;28;20021;-69
2023/12/21 21:27:41;;;;;;;17.57;3.77;;;;;;;6.67;100.00;100135.13;5255823;28;20475;-70
2023/12/21 21:30:13;;;;;;;13.33;3.43;;;;;;;6.67;100.00;100110.91;5256324;28;20024;-70
2023/12/21 21:32:44;;;;;;;16.93;3.80;;;;;;;6.65;100.00;100118.75;5256035;28;20048;-70
2023/12/21 21:35:16;;;;;;;16.77;3.20;;;;;;;6.71;100.00;100122.81;5253918;28;20029;-69
2023/12/21 21:37:47;;;;;;;13.33;3.67;;;;;;;6.74;100.00;100123.47;5254514;28;20024;-69
2023/12/21 21:40:18;;;;;;;15.83;3.73;;;;;;;6.68;100.00;100144.66;5254589;28;20025;-70
2023/12/21 21:42:49;;;;;;;13.70;2.63;;;;;;;6.64;100.00;100098.88;5254004;28;20147;-70
2023/12/21 21:45:21;;;;;;;20.00;4.27;;;;;;;6.72;100.00;100129.69;5254882;28;20029;-69
2023/12/21 21:47:52;;;;;;;23.30;4.23;;;;;;;6.60;100.00;100141.59;5256367;28;20025;-70
2023/12/21 21:50:23;;;;;;;18.10;3.67;;;;;;;6.82;100.00;100169.06;5254547;28;20028;-69
2023/12/21 21:52:55;;;;;;;17.33;3.50;;;;;;;6.69;100.00;100148.91;5254622;28;20044;-69
2023/12/21 21:55:26;;;;;;;14.10;2.80;;;;;;;6.60;100.00;100142.44;5255944;28;20020;-70
2023/12/21 21:57:57;;;;;;;14.10;3.67;;;;;;;6.58;100.00;100143.47;5254725;28;20039;-69
2023/12/21 22:00:28;;;;;;;19.23;4.27;;;;;;;6.64;100.00;100132.72;5255574;28;20434;-69
2023/12/21 22:03:00;;;;;;;19.37;4.57;;;;;;;6.65;100.00;100129.19;5255756;28;20458;-69
2023/12/21 22:05:31;;;;;;;17.90;3.53;;;;;;;6.72;100.00;100130.53;5254983;28;20391;-69
2023/12/21 22:08:03;;;;;;;11.30;3.30;;;;;;;6.66;100.00;100110.06;5254439;28;20036;-69
2023/12/21 22:10:34;;;;;;;17.50;4.40;;;;;;;6.65;100.00;100114.41;5254309;28;20110;-69
2023/12/21 22:13:05;;;;;;;19.23;4.93;;;;;;;6.69;100.00;100120.28;5256389;28;20029;-69
2023/12/21 22:15:37;;;;;;;17.53;4.00;;;;;;;6.72;100.00;100138.31;5258575;28;20021;-70
2023/12/21 22:18:08;;;;;;;19.57;3.70;;;;;;;6.65;100.00;100134.38;5254218;28;20024;-70
2023/12/21 22:20:39;;;;;;;14.77;4.87;;;;;;;6.57;100.00;100144.38;5253931;28;20728;-69
2023/12/21 22:23:11;;;;;;;21.30;5.50;;;;;;;6.56;100.00;100140.94;5255118;28;20486;-69
2023/12/21 22:25:42;;;;;;;16.73;4.40;;;;;;;6.60;100.00;100141.59;5255301;28;20075;-69
2023/12/21 22:28:14;;;;;;;24.77;5.10;;;;;;;6.60;100.00;100128.59;5252241;28;20032;-70
